createdAt,value
2018-09-20T00:05:55.204Z,21.46
2018-09-20T00:08:58.640Z,21.42
2018-09-20T00:12:02.163Z,21.39
2018-09-20T00:15:05.726Z,21.36
2018-09-20T00:18:09.282Z,21.32
2018-09-20T00:21:12.832Z,21.28
2018-09-20T00:24:16.252Z,21.25
2018-09-20T00:27:19.808Z,21.20
2018-09-20T00:30:23.261Z,21.16
2018-09-20T00:33:26.750Z,21.15
2018-09-20T00:36:30.168Z,21.11
2018-09-20T00:39:33.970Z,21.15
2018-09-20T00:42:37.496Z,21.17
2018-09-20T00:45:41.235Z,21.20
2018-09-20T00:48:44.674Z,21.19
2018-09-20T00:51:48.585Z,21.18
2018-09-20T00:54:52.730Z,21.13
2018-09-20T00:57:56.520Z,21.12
2018-09-20T01:01:00.607Z,21.10
2018-09-20T01:04:04.058Z,21.07
2018-09-20T01:07:07.590Z,21.05
2018-09-20T01:10:11.034Z,21.03
2018-09-20T01:13:14.431Z,21.00
2018-09-20T01:16:17.839Z,21.00
2018-09-20T01:19:21.339Z,20.94
2018-09-20T01:22:24.908Z,20.85
2018-09-20T01:25:28.350Z,20.83
2018-09-20T01:28:31.745Z,20.82
2018-09-20T01:31:35.150Z,20.80
2018-09-20T01:34:38.565Z,20.82
2018-09-20T01:37:42.386Z,20.84
2018-09-20T01:40:45.981Z,20.84
2018-09-20T01:43:49.457Z,20.83
2018-09-20T01:46:52.855Z,20.82
2018-09-20T01:49:56.253Z,20.76
2018-09-20T01:52:59.895Z,20.68
2018-09-20T01:56:03.361Z,20.59
2018-09-20T01:59:06.817Z,20.56
2018-09-20T02:02:10.394Z,20.51
2018-09-20T02:05:13.897Z,20.50
2018-09-20T02:08:17.375Z,20.48
2018-09-20T02:11:20.778Z,20.49
2018-09-20T02:14:24.271Z,20.49
2018-09-20T02:17:27.670Z,20.51
2018-09-20T02:20:31.090Z,20.45
2018-09-20T02:23:34.738Z,20.42
2018-09-20T02:26:38.152Z,20.34
2018-09-20T02:29:41.572Z,20.30
2018-09-20T02:32:45.039Z,20.27
2018-09-20T02:35:48.479Z,20.21
2018-09-20T02:38:51.919Z,20.18
2018-09-20T02:41:55.269Z,20.19
2018-09-20T02:44:58.669Z,20.20
2018-09-20T02:48:02.115Z,20.22
2018-09-20T02:51:05.473Z,20.21
2018-09-20T02:54:08.908Z,20.21
2018-09-20T02:57:12.273Z,20.18
2018-09-20T03:00:15.728Z,20.17
2018-09-20T03:03:19.184Z,20.14
2018-09-20T03:06:22.576Z,20.12
2018-09-20T03:09:25.983Z,20.05
2018-09-20T03:12:29.365Z,20.01
2018-09-20T03:15:32.770Z,19.96
2018-09-20T03:18:36.306Z,19.91
2018-09-20T03:21:39.659Z,19.85
2018-09-20T03:24:43.367Z,19.77
2018-09-20T03:27:46.799Z,19.68
2018-09-20T03:30:50.542Z,19.64
2018-09-20T03:33:53.886Z,19.59
2018-09-20T03:36:57.303Z,19.60
2018-09-20T03:40:00.826Z,19.53
2018-09-20T03:43:04.206Z,19.44
2018-09-20T03:46:07.862Z,19.39
2018-09-20T03:49:11.313Z,19.39
2018-09-20T03:52:14.887Z,19.40
2018-09-20T03:55:18.413Z,19.42
2018-09-20T03:58:22.148Z,19.45
2018-09-20T04:01:25.623Z,19.49
2018-09-20T04:04:29.231Z,19.50
2018-09-20T04:07:32.807Z,19.48
2018-09-20T04:10:36.363Z,19.49
2018-09-20T04:13:39.876Z,19.50
2018-09-20T04:16:43.339Z,19.48
2018-09-20T04:19:46.856Z,19.48
2018-09-20T04:22:50.479Z,19.49
2018-09-20T04:25:53.958Z,19.49
2018-09-20T04:28:57.824Z,19.47
2018-09-20T04:32:01.335Z,19.34
2018-09-20T04:35:04.931Z,19.35
2018-09-20T04:38:08.394Z,19.35
2018-09-20T04:41:11.973Z,19.32
2018-09-20T04:44:15.456Z,19.28
2018-09-20T04:47:18.971Z,19.25
2018-09-20T04:50:22.572Z,19.23
2018-09-20T04:53:26.121Z,19.20
2018-09-20T04:56:29.604Z,19.18
2018-09-20T04:59:33.077Z,19.12
2018-09-20T05:02:36.568Z,19.07
2018-09-20T05:05:40.077Z,19.02
2018-09-20T05:08:43.488Z,19.01
2018-09-20T05:11:47.006Z,19.00
2018-09-20T05:14:50.504Z,19.00
2018-09-20T05:17:54.019Z,19.00
2018-09-20T05:20:57.559Z,19.03
2018-09-20T05:24:01.039Z,19.02
2018-09-20T05:27:04.496Z,18.97
2018-09-20T05:30:07.967Z,18.95
2018-09-20T05:33:11.468Z,19.00
2018-09-20T05:36:14.910Z,19.06
2018-09-20T05:39:18.415Z,19.13
2018-09-20T05:42:21.906Z,19.15
2018-09-20T05:45:25.495Z,19.16
2018-09-20T05:48:29.017Z,19.18
2018-09-20T05:51:32.420Z,19.18
2018-09-20T05:54:36.326Z,19.18
2018-09-20T05:57:39.846Z,19.19
2018-09-20T06:00:43.396Z,19.19
2018-09-20T06:03:47.211Z,19.17
2018-09-20T06:06:50.752Z,19.22
2018-09-20T06:09:54.259Z,19.25
2018-09-20T06:12:57.701Z,19.32
2018-09-20T06:16:01.159Z,19.38
2018-09-20T06:19:04.585Z,19.40
2018-09-20T06:22:08.401Z,19.44
2018-09-20T06:25:12.170Z,19.45
2018-09-20T06:28:15.583Z,19.48
2018-09-20T06:31:19.023Z,19.52
2018-09-20T06:34:22.501Z,19.55
2018-09-20T06:37:26.074Z,19.53
2018-09-20T06:40:29.504Z,19.59
2018-09-20T06:43:32.971Z,19.70
2018-09-20T06:46:36.388Z,19.79
2018-09-20T06:49:39.806Z,19.88
2018-09-20T06:52:43.307Z,19.92
2018-09-20T06:55:46.817Z,20.03
2018-09-20T06:58:50.356Z,20.18
2018-09-20T07:01:53.818Z,20.31
2018-09-20T07:04:57.469Z,20.49
2018-09-20T07:08:01.013Z,20.61
2018-09-20T07:11:04.436Z,20.71
2018-09-20T07:14:07.981Z,20.85
2018-09-20T07:17:11.489Z,20.96
2018-09-20T07:20:14.973Z,21.12
2018-09-20T07:23:18.588Z,21.20
2018-09-20T07:26:22.046Z,21.26
2018-09-20T07:29:25.501Z,21.43
2018-09-20T07:32:28.904Z,21.56
2018-09-20T07:35:32.380Z,21.63
2018-09-20T07:38:35.887Z,21.83
2018-09-20T07:41:39.765Z,21.98
2018-09-20T07:44:43.116Z,21.97
2018-09-20T07:47:46.523Z,22.04
2018-09-20T07:50:50.299Z,22.07
2018-09-20T07:53:53.766Z,22.20
2018-09-20T07:56:57.338Z,22.00
2018-09-20T08:00:02.873Z,21.97
2018-09-20T08:03:06.310Z,22.16
2018-09-20T08:06:09.765Z,22.35
2018-09-20T08:09:13.491Z,22.55
2018-09-20T08:12:17.156Z,22.78
2018-09-20T08:15:20.505Z,22.88
2018-09-20T08:18:24.256Z,22.81
2018-09-20T08:21:27.779Z,22.98
2018-09-20T08:24:31.156Z,23.15
2018-09-20T08:27:34.506Z,23.32
2018-09-20T08:30:37.938Z,23.46
2018-09-20T08:33:41.532Z,23.54
2018-09-20T08:36:44.965Z,23.63
2018-09-20T08:39:48.418Z,23.75
2018-09-20T08:42:51.886Z,23.85
2018-09-20T08:45:55.356Z,24.08
2018-09-20T08:48:58.759Z,24.38
2018-09-20T08:52:02.173Z,24.53
2018-09-20T08:55:06.087Z,24.69
2018-09-20T08:58:09.608Z,24.80
2018-09-20T09:01:13.156Z,24.80
2018-09-20T09:04:16.642Z,24.79
2018-09-20T09:07:20.051Z,24.84
2018-09-20T09:10:23.571Z,25.17
2018-09-20T09:13:26.976Z,25.31
2018-09-20T09:16:30.497Z,25.45
2018-09-20T09:19:34.056Z,25.43
2018-09-20T09:22:37.577Z,25.49
2018-09-20T09:25:41.194Z,25.58
2018-09-20T09:28:44.717Z,25.70
2018-09-20T09:31:48.164Z,25.76
2018-09-20T09:34:51.743Z,26.01
2018-09-20T09:37:55.170Z,25.99
2018-09-20T09:40:58.765Z,26.06
2018-09-20T09:44:02.390Z,26.02
2018-09-20T09:47:05.928Z,26.13
2018-09-20T09:50:09.456Z,26.43
2018-09-20T09:53:13.086Z,26.44
2018-09-20T09:56:16.640Z,26.63
2018-09-20T09:59:20.098Z,26.60
2018-09-20T10:02:23.789Z,26.76
2018-09-20T10:05:27.317Z,26.56
2018-09-20T10:08:30.948Z,26.98
2018-09-20T10:11:34.456Z,27.22
2018-09-20T10:14:38.188Z,27.36
2018-09-20T10:17:41.731Z,27.42
2018-09-20T10:20:45.279Z,27.37
2018-09-20T10:23:48.791Z,27.40
2018-09-20T10:26:52.294Z,27.24
2018-09-20T10:29:55.728Z,27.56
2018-09-20T10:32:59.271Z,27.84
2018-09-20T10:36:02.869Z,27.93
2018-09-20T10:39:09.219Z,28.00
2018-09-20T10:42:12.817Z,28.05
2018-09-20T10:45:16.349Z,28.15
2018-09-20T10:48:19.830Z,28.29
2018-09-20T10:51:23.520Z,28.34
2018-09-20T10:54:27.364Z,28.17
2018-09-20T10:57:30.947Z,28.17
2018-09-20T11:00:34.474Z,28.23
2018-09-20T11:03:38.073Z,28.17
2018-09-20T11:06:41.593Z,28.22
2018-09-20T11:09:45.309Z,28.30
2018-09-20T11:12:48.878Z,28.26
2018-09-20T11:15:52.458Z,28.08
2018-09-20T11:18:55.936Z,28.04
2018-09-20T11:21:59.493Z,28.14
2018-09-20T11:25:03.027Z,28.36
2018-09-20T11:28:06.559Z,28.65
2018-09-20T11:31:10.081Z,28.62
2018-09-20T11:34:13.602Z,28.73
2018-09-20T11:37:17.976Z,28.81
2018-09-20T11:40:21.423Z,28.88
2018-09-20T11:43:24.944Z,28.90
2018-09-20T11:46:30.253Z,29.04
2018-09-20T11:49:33.791Z,28.97
2018-09-20T11:52:37.343Z,29.02
2018-09-20T11:55:40.795Z,29.04
2018-09-20T11:58:44.386Z,28.94
2018-09-20T12:01:48.021Z,29.04
2018-09-20T12:04:51.563Z,28.80
2018-09-20T12:07:55.066Z,28.95
2018-09-20T12:10:58.527Z,28.83
2018-09-20T12:14:02.099Z,28.82
2018-09-20T12:17:05.526Z,28.69
2018-09-20T12:20:09.047Z,29.04
2018-09-20T12:23:12.491Z,29.22
2018-09-20T12:26:15.955Z,29.33
2018-09-20T12:29:19.461Z,29.38
2018-09-20T12:32:23.533Z,29.26
2018-09-20T12:35:26.868Z,29.42
2018-09-20T12:38:30.345Z,29.32
2018-09-20T12:41:33.878Z,29.35
2018-09-20T12:44:37.318Z,29.44
2018-09-20T12:47:41.088Z,29.51
2018-09-20T12:50:44.700Z,29.67
2018-09-20T12:53:48.099Z,29.55
2018-09-20T12:56:51.617Z,29.63
2018-09-20T12:59:55.109Z,29.40
2018-09-20T13:02:58.598Z,29.53
2018-09-20T13:06:02.134Z,29.70
2018-09-20T13:09:08.273Z,29.57
2018-09-20T13:12:11.835Z,29.54
2018-09-20T13:15:15.350Z,29.71
2018-09-20T13:18:18.902Z,29.61
2018-09-20T13:21:22.384Z,29.66
2018-09-20T13:24:25.986Z,29.68
2018-09-20T13:27:29.616Z,29.67
2018-09-20T13:30:33.109Z,29.74
2018-09-20T13:33:36.578Z,29.83
2018-09-20T13:36:40.145Z,29.82
2018-09-20T13:39:43.683Z,29.92
2018-09-20T13:42:47.289Z,29.82
2018-09-20T13:45:50.994Z,29.98
2018-09-20T13:48:54.581Z,30.12
2018-09-20T13:51:58.152Z,30.13
2018-09-20T13:55:01.642Z,29.99
2018-09-20T13:58:05.315Z,30.03
2018-09-20T14:01:08.913Z,30.21
2018-09-20T14:04:12.434Z,30.20
2018-09-20T14:07:16.263Z,30.29
2018-09-20T14:10:19.938Z,30.33
2018-09-20T14:13:23.453Z,30.46
2018-09-20T14:16:27.053Z,30.46
2018-09-20T14:19:30.719Z,30.64
2018-09-20T14:22:34.430Z,30.57
2018-09-20T14:25:37.919Z,30.74
2018-09-20T14:28:41.536Z,30.66
2018-09-20T14:31:45.079Z,30.86
2018-09-20T14:34:48.568Z,30.96
2018-09-20T14:37:52.080Z,30.95
2018-09-20T14:40:55.657Z,30.99
2018-09-20T14:43:59.277Z,30.99
2018-09-20T14:47:02.770Z,30.89
2018-09-20T14:50:06.301Z,30.90
2018-09-20T14:53:09.866Z,31.05
2018-09-20T14:56:13.355Z,30.97
2018-09-20T14:59:16.833Z,30.93
2018-09-20T15:02:20.431Z,31.08
2018-09-20T15:05:24.021Z,31.11
2018-09-20T15:08:27.469Z,31.14
2018-09-20T15:11:30.996Z,31.11
2018-09-20T15:14:34.521Z,31.09
2018-09-20T15:17:37.939Z,30.87
2018-09-20T15:20:41.533Z,30.70
2018-09-20T15:23:45.163Z,30.85
2018-09-20T15:26:48.770Z,30.79
2018-09-20T15:29:52.294Z,30.81
2018-09-20T15:32:55.874Z,30.61
2018-09-20T15:35:59.470Z,30.75
2018-09-20T15:39:03.527Z,30.73
2018-09-20T15:42:07.071Z,30.88
2018-09-20T15:45:10.682Z,30.91
2018-09-20T15:48:14.161Z,30.87
2018-09-20T15:51:17.627Z,30.77
2018-09-20T15:54:21.170Z,30.37
2018-09-20T15:57:24.664Z,30.50
2018-09-20T16:00:28.206Z,30.62
2018-09-20T16:03:31.640Z,30.36
2018-09-20T16:06:35.205Z,30.30
2018-09-20T16:09:38.645Z,30.25
2018-09-20T16:12:42.487Z,30.20
2018-09-20T16:18:57.775Z,30.21
2018-09-20T16:22:01.214Z,30.14
2018-09-20T16:25:05.143Z,30.09
2018-09-20T16:28:18.900Z,29.98
2018-09-20T16:31:33.853Z,29.75
2018-09-20T16:34:52.661Z,29.66
2018-09-20T16:38:03.956Z,29.57
2018-09-20T16:41:09.878Z,29.46
2018-09-20T16:44:13.343Z,29.39
2018-09-20T16:47:16.747Z,29.28
2018-09-20T16:50:20.145Z,29.19
2018-09-20T16:53:24.015Z,29.07
2018-09-20T16:56:27.440Z,29.05
2018-09-20T16:59:30.876Z,29.00
2018-09-20T17:02:34.283Z,28.94
2018-09-20T17:05:37.794Z,28.90
2018-09-20T17:08:41.415Z,28.83
2018-09-20T17:11:44.965Z,28.72
2018-09-20T17:14:48.439Z,28.64
2018-09-20T17:17:51.884Z,28.54
2018-09-20T17:20:55.277Z,28.46
2018-09-20T17:23:58.684Z,28.32
2018-09-20T17:27:02.103Z,28.20
2018-09-20T17:30:05.556Z,28.06
2018-09-20T17:33:09.075Z,27.92
2018-09-20T17:36:12.878Z,27.83
2018-09-20T17:39:17.267Z,27.69
2018-09-20T17:42:22.193Z,27.49
2018-09-20T17:45:25.602Z,27.32
2018-09-20T17:48:29.074Z,27.17
2018-09-20T17:51:32.949Z,26.99
2018-09-20T17:54:37.133Z,26.84
2018-09-20T17:57:41.489Z,26.68
2018-09-20T18:00:44.928Z,26.51
2018-09-20T18:03:48.490Z,26.40
2018-09-20T18:06:51.969Z,26.33
2018-09-20T18:09:55.811Z,26.25
2018-09-20T18:12:59.238Z,26.10
2018-09-20T18:16:02.681Z,26.02
2018-09-20T18:19:06.067Z,25.97
2018-09-20T18:22:09.609Z,25.87
2018-09-20T18:25:13.158Z,25.71
2018-09-20T18:28:16.574Z,25.59
2018-09-20T18:31:20.214Z,25.46
2018-09-20T18:34:23.987Z,25.45
2018-09-20T18:37:28.792Z,25.36
2018-09-20T18:40:32.593Z,25.24
2018-09-20T18:43:36.125Z,25.14
2018-09-20T18:46:39.709Z,25.05
2018-09-20T18:49:43.202Z,24.92
2018-09-20T18:52:46.789Z,24.81
2018-09-20T18:55:50.290Z,24.76
2018-09-20T18:58:53.844Z,24.64
2018-09-20T19:01:57.328Z,24.60
2018-09-20T19:05:00.867Z,24.51
2018-09-20T19:08:04.441Z,24.49
2018-09-20T19:11:08.018Z,24.53
2018-09-20T19:14:11.689Z,24.56
2018-09-20T19:17:15.147Z,24.57
2018-09-20T19:20:18.684Z,24.60
2018-09-20T19:23:22.228Z,24.52
2018-09-20T19:26:25.798Z,24.50
2018-09-20T19:29:29.539Z,24.38
2018-09-20T19:32:33.060Z,24.35
2018-09-20T19:35:36.626Z,24.35
2018-09-20T19:38:40.162Z,24.37
2018-09-20T19:41:43.647Z,24.32
2018-09-20T19:44:47.168Z,24.27
2018-09-20T19:47:50.640Z,24.19
2018-09-20T19:50:54.062Z,24.15
2018-09-20T19:53:57.550Z,24.07
2018-09-20T19:57:01.086Z,24.03
2018-09-20T20:00:04.981Z,24.00
2018-09-20T20:03:08.633Z,23.96
2018-09-20T20:06:12.071Z,23.90
2018-09-20T20:09:15.477Z,23.82
2018-09-20T20:12:19.094Z,23.73
2018-09-20T20:15:22.605Z,23.70
2018-09-20T20:18:26.113Z,23.63
2018-09-20T20:21:29.668Z,23.55
2018-09-20T20:24:33.084Z,23.48
2018-09-20T20:27:36.573Z,23.32
2018-09-20T20:30:40.598Z,23.20
2018-09-20T20:33:45.172Z,23.13
2018-09-20T20:36:49.602Z,23.04
2018-09-20T20:39:54.429Z,23.03
2018-09-20T20:42:58.874Z,22.97
2018-09-20T20:46:03.830Z,22.88
2018-09-20T20:49:08.294Z,22.78
2018-09-20T20:52:12.844Z,22.75
2018-09-20T20:55:17.448Z,22.74
2018-09-20T20:58:21.847Z,22.69
2018-09-20T21:01:26.384Z,22.77
2018-09-20T21:04:30.723Z,22.82
2018-09-20T21:07:35.390Z,22.82
2018-09-20T21:10:40.861Z,22.82
2018-09-20T21:13:45.248Z,22.78
2018-09-20T21:16:49.886Z,22.74
2018-09-20T21:19:54.977Z,22.70
2018-09-20T21:22:59.459Z,22.71
2018-09-20T21:26:03.978Z,22.66
2018-09-20T21:29:09.819Z,22.63
2018-09-20T21:32:14.299Z,22.64
2018-09-20T21:35:19.030Z,22.60
2018-09-20T21:38:23.738Z,22.58
2018-09-20T21:41:28.641Z,22.56
2018-09-20T21:44:33.012Z,22.56
2018-09-20T21:47:37.526Z,22.50
2018-09-20T21:50:42.129Z,22.41
2018-09-20T21:53:46.680Z,22.35
2018-09-20T21:56:51.150Z,22.26
2018-09-20T21:59:54.648Z,22.22
2018-09-20T22:03:02.481Z,22.16
2018-09-20T22:06:06.928Z,22.08
2018-09-20T22:09:12.547Z,21.98
2018-09-20T22:12:16.013Z,21.92
2018-09-20T22:15:23.452Z,21.89
2018-09-20T22:18:26.927Z,21.82
2018-09-20T22:21:30.297Z,21.83
2018-09-20T22:24:33.719Z,21.75
2018-09-20T22:27:38.280Z,21.75
2018-09-20T22:30:41.715Z,21.71
2018-09-20T22:33:45.142Z,21.70
2018-09-20T22:36:48.564Z,21.71
2018-09-20T22:39:51.947Z,21.68
2018-09-20T22:42:55.338Z,21.65
2018-09-20T22:45:58.884Z,21.66
2018-09-20T22:49:02.368Z,21.56
2018-09-20T22:52:05.860Z,21.54
2018-09-20T22:55:09.271Z,21.51
2018-09-20T22:58:12.649Z,21.47
2018-09-20T23:01:16.043Z,21.45
2018-09-20T23:04:19.490Z,21.38
2018-09-20T23:07:22.912Z,21.33
2018-09-20T23:10:26.377Z,21.25
2018-09-20T23:13:29.756Z,21.22
2018-09-20T23:16:33.403Z,21.19
2018-09-20T23:19:36.943Z,21.16
2018-09-20T23:22:40.357Z,21.11
2018-09-20T23:25:43.842Z,21.00
2018-09-20T23:28:47.518Z,20.96
2018-09-20T23:31:51.936Z,20.96
2018-09-20T23:34:55.634Z,20.95
2018-09-20T23:37:59.060Z,20.97
2018-09-20T23:41:02.532Z,21.01
2018-09-20T23:44:06.193Z,21.02
2018-09-20T23:47:09.650Z,20.97
2018-09-20T23:50:13.169Z,20.96
2018-09-20T23:53:16.621Z,21.01
2018-09-20T23:56:20.161Z,20.88
2018-09-20T23:59:24.584Z,20.80
